SKPC

Details ICAO SKPC (PCR)
Name PUERTO CARRENO
Region Colombia
Timezone America/Bogota (UTC-5.0)
Plans Departing 8
Arriving 6
Stats Elevation 177 ft / 54 m (AMSL)
Location 6.184709° -67.493164°
Runways 1
Magnetic Variation 11.763° W
Sunrise 2018-05-20 10:15:19 UTC / 2018-05-20 05:15:19 Local
Sunset 2018-05-20 22:40:33 UTC / 2018-05-20 17:40:33 Local
Advertisement - Login to hide

Runways

ID Width Length Bearing (true) Bearing (mag) Surface Threshold Offset Overrun Length
07 69 ft / 21 m 5,907 ft / 1,800 m 60.20° 71.96° Asphalt 0 ft / 0 m 0 ft / 0 m
25 69 ft / 21 m 5,907 ft / 1,800 m 240.20° 251.96° Asphalt 0 ft / 0 m 0 ft / 0 m

Map

Weather


0- 5 10 15 20 25 30 35+ Temperature / ° C

Clouds and Precipitation
Forecast for 2018-05-20 18:00 UTC. Updated an hour ago

Ground ~20,000 ft ~40,000 ft Winds

METAR

SKPC 201800Z 29006KT 9999 SCT017 SCT070 31/24 A2982

TAF

Not found

Frequencies

Tower 118.10 MHz TWR
Warning: Do not use this data for real-world aviation or navigation. No guarantee of current accuracy is given.